createdAt,value
2022-10-11T00:01:01.778Z,1.30
2022-10-11T00:03:28.775Z,1.15
2022-10-11T00:05:55.487Z,1.50
2022-10-11T00:08:22.328Z,1.42
2022-10-11T00:11:00.160Z,1.13
2022-10-11T00:13:27.747Z,1.10
2022-10-11T00:15:54.623Z,1.15
2022-10-11T00:18:21.324Z,1.23
2022-10-11T00:20:53.448Z,1.63
2022-10-11T00:23:20.597Z,1.13
2022-10-11T00:25:57.160Z,1.42
2022-10-11T00:28:24.127Z,1.23
2022-10-11T00:30:50.919Z,1.30
2022-10-11T00:33:17.691Z,1.40
2022-10-11T00:35:44.807Z,1.20
2022-10-11T00:38:11.956Z,1.40
2022-10-11T00:40:38.769Z,1.20
2022-10-11T00:43:16.790Z,1.25
2022-10-11T00:45:59.791Z,1.40
2022-10-11T00:48:34.609Z,1.10
2022-10-11T00:51:06.525Z,1.10
2022-10-11T00:53:34.395Z,1.60
2022-10-11T00:56:16.214Z,1.20
2022-10-11T00:58:44.246Z,1.17
2022-10-11T01:01:14.821Z,1.58
2022-10-11T01:03:47.147Z,1.42
2022-10-11T01:06:13.900Z,1.38
2022-10-11T01:08:40.937Z,1.42
2022-10-11T01:11:13.421Z,1.45
2022-10-11T01:13:52.098Z,1.38
2022-10-11T01:16:37.905Z,1.40
2022-10-11T01:19:19.823Z,1.20
2022-10-11T01:22:04.901Z,1.52
2022-10-11T01:25:02.341Z,1.30
2022-10-11T01:27:38.852Z,1.33
2022-10-11T01:30:28.562Z,1.52
2022-10-11T01:33:14.179Z,1.40
2022-10-11T01:35:43.948Z,1.45
2022-10-11T01:38:30.560Z,1.40
2022-10-11T01:41:02.898Z,1.30
2022-10-11T01:43:33.853Z,1.30
2022-10-11T01:46:02.518Z,1.40
2022-10-11T01:48:29.658Z,1.40
2022-10-11T01:50:59.008Z,1.23
2022-10-11T01:53:52.722Z,1.30
2022-10-11T01:56:30.338Z,1.30
2022-10-11T01:59:24.599Z,1.27
2022-10-11T02:01:59.691Z,1.27
2022-10-11T02:04:51.289Z,1.30
2022-10-11T02:07:25.402Z,1.50
2022-10-11T02:09:58.305Z,1.55
2022-10-11T02:12:31.491Z,1.65
2022-10-11T02:15:00.858Z,1.50
2022-10-11T02:17:38.404Z,1.45
2022-10-11T02:20:11.355Z,1.55
2022-10-11T02:22:43.753Z,1.60
2022-10-11T02:25:17.602Z,1.50
2022-10-11T02:27:52.365Z,1.50
2022-10-11T02:30:22.855Z,1.42
2022-10-11T02:32:54.871Z,1.42
2022-10-11T02:35:29.907Z,1.42
2022-10-11T02:38:13.608Z,1.50
2022-10-11T02:40:50.109Z,1.33
2022-10-11T02:43:52.775Z,1.60
2022-10-11T02:46:20.131Z,1.60
2022-10-11T02:48:50.848Z,1.70
2022-10-11T02:51:20.586Z,1.50
2022-10-11T02:53:51.062Z,1.50
2022-10-11T02:56:18.283Z,1.50
2022-10-11T02:58:50.510Z,1.60
2022-10-11T03:01:17.509Z,1.55
2022-10-11T03:03:49.242Z,1.50
2022-10-11T03:06:25.440Z,1.40
2022-10-11T03:08:55.026Z,1.60
2022-10-11T03:11:24.444Z,1.50
2022-10-11T03:13:51.417Z,1.50
2022-10-11T03:16:28.458Z,1.70
2022-10-11T03:18:59.919Z,1.48
2022-10-11T03:21:26.820Z,1.58
2022-10-11T03:23:53.716Z,1.50
2022-10-11T03:26:20.942Z,1.48
2022-10-11T03:28:48.024Z,1.42
2022-10-11T03:31:14.959Z,1.80
2022-10-11T03:33:44.413Z,1.48
2022-10-11T03:36:15.466Z,1.80
2022-10-11T03:38:57.169Z,1.48
2022-10-11T03:41:26.929Z,1.55
2022-10-11T03:43:53.465Z,1.50
2022-10-11T03:46:20.112Z,1.63
2022-10-11T03:48:47.024Z,1.50
2022-10-11T03:51:15.455Z,1.60
2022-10-11T03:53:42.134Z,1.70
2022-10-11T03:56:10.047Z,1.30
2022-10-11T03:58:40.855Z,1.60
2022-10-11T04:01:08.599Z,1.60
2022-10-11T04:03:35.605Z,1.52
2022-10-11T04:06:02.918Z,1.65
2022-10-11T04:08:29.750Z,1.35
2022-10-11T04:10:56.577Z,1.60
2022-10-11T04:13:23.437Z,1.77
2022-10-11T04:15:50.123Z,1.65
2022-10-11T04:18:16.804Z,1.55
2022-10-11T04:20:43.845Z,1.50
2022-10-11T04:23:13.475Z,1.38
2022-10-11T04:25:40.306Z,1.45
2022-10-11T04:28:11.112Z,1.63
2022-10-11T04:30:46.443Z,1.70
2022-10-11T04:33:24.262Z,2.80
2022-10-11T04:35:58.153Z,1.90
2022-10-11T04:38:25.017Z,2.08
2022-10-11T04:40:52.123Z,2.25
2022-10-11T04:43:19.164Z,1.92
2022-10-11T04:45:46.303Z,1.83
2022-10-11T04:48:14.280Z,2.00
2022-10-11T04:50:41.326Z,2.17
2022-10-11T04:53:08.263Z,2.08
2022-10-11T04:55:35.061Z,2.05
2022-10-11T04:58:02.283Z,2.15
2022-10-11T05:00:28.928Z,1.88
2022-10-11T05:02:55.674Z,2.30
2022-10-11T05:05:22.271Z,2.33
2022-10-11T05:07:48.876Z,2.45
2022-10-11T05:10:15.536Z,2.78
2022-10-11T05:12:42.202Z,2.65
2022-10-11T05:15:09.464Z,2.75
2022-10-11T05:17:36.310Z,2.40
2022-10-11T05:20:03.236Z,1.90
2022-10-11T05:22:29.784Z,2.33
2022-10-11T05:24:56.279Z,2.40
2022-10-11T05:27:22.807Z,2.40
2022-10-11T05:29:49.339Z,2.83
2022-10-11T05:32:15.827Z,2.70
2022-10-11T05:34:42.351Z,2.55
2022-10-11T05:37:08.848Z,2.60
2022-10-11T05:39:35.368Z,2.60
2022-10-11T05:42:01.845Z,2.25
2022-10-11T05:44:28.540Z,2.47
2022-10-11T05:46:55.081Z,2.40
2022-10-11T05:49:21.577Z,2.20
2022-10-11T05:51:48.071Z,2.35
2022-10-11T05:54:14.565Z,2.38
2022-10-11T05:56:41.101Z,2.10
2022-10-11T05:59:07.656Z,2.53
2022-10-11T06:01:34.226Z,2.40
2022-10-11T06:04:00.782Z,2.38
2022-10-11T06:06:27.424Z,2.50
2022-10-11T06:08:53.924Z,2.38
2022-10-11T06:11:23.566Z,2.17
2022-10-11T06:13:50.300Z,2.88
2022-10-11T06:16:16.843Z,2.35
2022-10-11T06:18:43.510Z,2.83
2022-10-11T06:21:10.252Z,2.40
2022-10-11T06:23:36.761Z,2.33
2022-10-11T06:26:07.394Z,2.50
2022-10-11T06:28:35.720Z,2.55
2022-10-11T06:31:04.577Z,2.28
2022-10-11T06:33:31.111Z,2.30
2022-10-11T06:36:03.934Z,2.40
2022-10-11T06:38:30.682Z,2.08
2022-10-11T06:40:57.209Z,2.13
2022-10-11T06:43:23.886Z,2.47
2022-10-11T06:45:50.416Z,2.17
2022-10-11T06:48:16.864Z,2.50
2022-10-11T06:50:59.146Z,2.20
2022-10-11T06:53:27.085Z,2.47
2022-10-11T06:55:53.618Z,2.50
2022-10-11T06:58:20.114Z,2.45
2022-10-11T07:00:46.655Z,2.42
2022-10-11T07:03:13.302Z,2.20
2022-10-11T07:05:39.855Z,2.20
2022-10-11T07:08:06.349Z,2.10
2022-10-11T07:10:32.945Z,2.30
2022-10-11T07:12:59.497Z,2.00
2022-10-11T07:15:26.056Z,2.50
2022-10-11T07:17:52.531Z,2.00
2022-10-11T07:20:19.268Z,2.17
2022-10-11T07:22:45.774Z,2.17
2022-10-11T07:25:12.290Z,1.90
2022-10-11T07:27:38.836Z,2.00
2022-10-11T07:30:06.148Z,2.40
2022-10-11T07:32:32.656Z,2.30
2022-10-11T07:34:59.243Z,2.30
2022-10-11T07:37:25.813Z,2.10
2022-10-11T07:39:52.337Z,2.47
2022-10-11T07:42:18.958Z,2.40
2022-10-11T07:44:45.586Z,2.17
2022-10-11T07:47:12.052Z,2.22
2022-10-11T07:49:38.566Z,2.17
2022-10-11T07:52:05.354Z,2.10
2022-10-11T07:54:32.876Z,2.30
2022-10-11T07:56:59.593Z,2.97
2022-10-11T07:59:26.152Z,2.13
2022-10-11T08:01:52.692Z,2.20
2022-10-11T08:04:21.317Z,2.28
2022-10-11T08:06:52.472Z,2.22
2022-10-11T08:09:19.928Z,2.40
2022-10-11T08:11:46.423Z,2.15
2022-10-11T08:14:12.934Z,2.47
2022-10-11T08:16:39.606Z,2.00
2022-10-11T08:19:06.989Z,2.35
2022-10-11T08:21:34.064Z,2.15
2022-10-11T08:24:03.400Z,2.10
2022-10-11T08:26:30.929Z,2.40
2022-10-11T08:28:58.656Z,2.40
2022-10-11T08:31:25.284Z,2.08
2022-10-11T08:33:51.823Z,2.30
2022-10-11T08:36:18.405Z,2.03
2022-10-11T08:38:45.054Z,2.17
2022-10-11T08:41:20.605Z,2.10
2022-10-11T08:44:02.487Z,2.13
2022-10-11T08:46:32.109Z,2.13
2022-10-11T08:49:00.525Z,1.90
2022-10-11T08:51:31.302Z,2.03
2022-10-11T08:54:07.961Z,2.42
2022-10-11T08:56:39.961Z,2.47
2022-10-11T08:59:12.478Z,1.90
2022-10-11T09:01:56.523Z,1.80
2022-10-11T09:04:23.149Z,2.20
2022-10-11T09:07:18.627Z,2.10
2022-10-11T09:10:17.170Z,2.08
2022-10-11T09:13:06.926Z,2.17
2022-10-11T09:15:42.449Z,2.00
2022-10-11T09:18:50.669Z,2.15
2022-10-11T09:21:32.233Z,2.08
2022-10-11T09:24:25.105Z,2.10
2022-10-11T09:26:51.782Z,2.28
2022-10-11T09:29:39.509Z,2.47
2022-10-11T09:32:13.972Z,1.95
2022-10-11T09:34:40.686Z,2.00
2022-10-11T09:37:30.510Z,1.88
2022-10-11T09:40:03.295Z,2.40
2022-10-11T09:42:29.779Z,2.15
2022-10-11T09:44:57.500Z,2.28
2022-10-11T09:47:29.683Z,2.20
2022-10-11T09:50:06.810Z,2.28
2022-10-11T09:52:33.896Z,2.10
2022-10-11T09:55:02.476Z,2.10
2022-10-11T09:57:39.201Z,1.95
2022-10-11T10:00:22.499Z,1.75
2022-10-11T10:02:51.687Z,1.90
2022-10-11T10:05:25.245Z,1.95
2022-10-11T10:08:04.724Z,2.30
2022-10-11T10:10:44.082Z,1.67
2022-10-11T10:13:22.818Z,1.80
2022-10-11T10:15:53.561Z,2.15
2022-10-11T10:18:32.988Z,2.20
2022-10-11T10:21:00.582Z,1.90
2022-10-11T10:23:30.509Z,1.95
2022-10-11T10:26:17.529Z,1.92
2022-10-11T10:29:01.196Z,2.10
2022-10-11T10:32:14.181Z,2.00
2022-10-11T10:34:37.555Z,2.35
2022-10-11T10:37:29.336Z,2.00
2022-10-11T10:40:43.889Z,1.92
2022-10-11T10:43:19.628Z,1.90
2022-10-11T10:46:06.110Z,1.98
2022-10-11T10:49:23.601Z,2.08
2022-10-11T10:51:46.749Z,2.05
2022-10-11T10:54:42.098Z,1.75
2022-10-11T10:57:28.464Z,2.25
2022-10-11T11:00:11.170Z,1.77
2022-10-11T11:02:57.114Z,2.00
2022-10-11T11:05:46.605Z,2.13
2022-10-11T11:08:18.282Z,2.22
2022-10-11T11:10:54.087Z,1.88
2022-10-11T11:13:43.015Z,2.00
2022-10-11T11:16:37.476Z,1.70
2022-10-11T11:19:47.485Z,1.70
2022-10-11T11:22:38.538Z,1.83
2022-10-11T11:25:24.361Z,2.00
2022-10-11T11:28:09.215Z,1.65
2022-10-11T11:31:11.639Z,1.70
2022-10-11T11:33:45.141Z,1.75
2022-10-11T11:36:21.263Z,1.65
2022-10-11T11:38:56.728Z,1.65
2022-10-11T11:41:28.285Z,1.65
2022-10-11T11:44:32.356Z,1.83
2022-10-11T11:47:06.274Z,1.90
2022-10-11T11:49:39.492Z,1.60
2022-10-11T11:52:11.671Z,1.80
2022-10-11T11:55:09.359Z,1.70
2022-10-11T11:58:07.105Z,1.55
2022-10-11T12:00:48.554Z,1.65
2022-10-11T12:03:25.309Z,1.90
2022-10-11T12:06:14.123Z,1.67
2022-10-11T12:08:43.699Z,1.83
2022-10-11T12:11:21.876Z,1.80
2022-10-11T12:13:51.997Z,1.80
2022-10-11T12:16:19.834Z,1.95
2022-10-11T12:18:50.188Z,1.88
2022-10-11T12:21:19.865Z,1.80
2022-10-11T12:23:49.502Z,1.60
2022-10-11T12:26:27.869Z,1.85
2022-10-11T12:29:20.752Z,1.90
2022-10-11T12:31:57.309Z,1.65
2022-10-11T12:34:26.836Z,2.05
2022-10-11T12:36:53.462Z,1.55
2022-10-11T12:39:19.890Z,1.73
2022-10-11T12:41:55.944Z,1.80
2022-10-11T12:44:27.676Z,1.88
2022-10-11T12:46:54.125Z,1.70
2022-10-11T12:49:36.331Z,1.70
2022-10-11T12:52:22.323Z,1.98
2022-10-11T12:55:13.605Z,1.75
2022-10-11T12:58:00.167Z,1.58
2022-10-11T13:00:32.866Z,1.80
2022-10-11T13:03:02.661Z,1.63
2022-10-11T13:05:45.033Z,1.83
2022-10-11T13:08:21.163Z,1.50
2022-10-11T13:10:48.193Z,1.85
2022-10-11T13:13:29.751Z,1.58
2022-10-11T13:15:59.006Z,1.60
2022-10-11T13:18:26.683Z,2.03
2022-10-11T13:20:53.485Z,1.50
2022-10-11T13:23:25.987Z,1.50
2022-10-11T13:25:53.304Z,1.50
2022-10-11T13:28:20.355Z,1.40
2022-10-11T13:30:50.035Z,1.70
2022-10-11T13:33:34.155Z,1.58
2022-10-11T13:36:03.510Z,1.50
2022-10-11T13:38:33.641Z,1.48
2022-10-11T13:41:03.924Z,1.42
2022-10-11T13:43:31.571Z,1.70
2022-10-11T13:46:00.856Z,1.38
2022-10-11T13:48:31.692Z,1.60
2022-10-11T13:51:34.303Z,1.50
2022-10-11T13:54:08.476Z,1.50
2022-10-11T13:56:44.148Z,1.95
2022-10-11T13:59:29.235Z,1.50
2022-10-11T14:02:01.280Z,1.45
2022-10-11T14:04:29.937Z,1.52
2022-10-11T14:07:02.648Z,1.50
2022-10-11T14:09:31.972Z,1.40
2022-10-11T14:12:32.675Z,1.63
2022-10-11T14:15:00.827Z,1.90
2022-10-11T14:17:57.340Z,1.67
2022-10-11T14:20:35.646Z,1.38
2022-10-11T14:23:02.235Z,1.50
2022-10-11T14:25:28.927Z,1.45
2022-10-11T14:27:55.452Z,1.50
2022-10-11T14:30:26.226Z,1.40
2022-10-11T14:32:56.513Z,1.33
2022-10-11T14:35:29.528Z,1.38
2022-10-11T14:37:56.193Z,1.55
2022-10-11T14:40:28.860Z,1.50
2022-10-11T14:42:55.761Z,1.33
2022-10-11T14:45:22.394Z,1.58
2022-10-11T14:47:49.143Z,1.48
2022-10-11T14:50:39.395Z,1.70
2022-10-11T14:53:07.588Z,1.70
2022-10-11T14:55:38.764Z,1.60
2022-10-11T14:58:06.260Z,1.40
2022-10-11T15:00:34.234Z,1.25
2022-10-11T15:03:00.821Z,1.40
2022-10-11T15:05:33.978Z,1.60
2022-10-11T15:08:02.075Z,1.30
2022-10-11T15:10:36.400Z,1.70
2022-10-11T15:13:03.589Z,1.40
2022-10-11T15:15:32.875Z,1.65
2022-10-11T15:18:00.399Z,1.15
2022-10-11T15:20:33.330Z,1.38
2022-10-11T15:23:00.874Z,1.50
2022-10-11T15:25:29.073Z,1.33
2022-10-11T15:27:55.773Z,1.40
2022-10-11T15:30:24.673Z,1.20
2022-10-11T15:32:53.429Z,1.50
2022-10-11T15:35:20.986Z,1.63
2022-10-11T15:37:47.725Z,1.17
2022-10-11T15:40:35.796Z,1.60
2022-10-11T15:43:03.325Z,1.52
2022-10-11T15:45:29.934Z,1.40
2022-10-11T15:47:56.634Z,1.20
2022-10-11T15:50:35.385Z,1.38
2022-10-11T15:53:12.946Z,1.30
2022-10-11T15:55:42.546Z,1.40
2022-10-11T15:58:18.974Z,1.30
2022-10-11T16:00:47.330Z,1.48
2022-10-11T16:03:15.484Z,1.38
2022-10-11T16:05:43.050Z,1.20
2022-10-11T16:08:11.295Z,1.52
2022-10-11T16:10:38.690Z,1.38
2022-10-11T16:14:09.908Z,1.20
2022-10-11T16:16:36.433Z,0.98
2022-10-11T16:19:03.062Z,1.30
2022-10-11T16:21:29.711Z,1.40
2022-10-11T16:23:56.206Z,1.40
2022-10-11T16:26:22.718Z,1.40
2022-10-11T16:28:49.380Z,1.20
2022-10-11T16:31:19.956Z,1.48
2022-10-11T16:33:47.728Z,1.25
2022-10-11T16:36:35.160Z,1.42
2022-10-11T16:39:06.270Z,1.10
2022-10-11T16:41:33.002Z,1.60
2022-10-11T16:43:59.515Z,1.40
2022-10-11T16:46:26.072Z,1.00
2022-10-11T16:48:55.867Z,1.50
2022-10-11T16:51:24.133Z,1.20
2022-10-11T16:53:52.382Z,1.30
2022-10-11T16:56:20.610Z,1.30
2022-10-11T16:58:47.269Z,1.40
2022-10-11T17:01:13.880Z,1.23
2022-10-11T17:03:40.494Z,1.25
2022-10-11T17:06:07.985Z,1.35
2022-10-11T17:08:35.395Z,1.20
2022-10-11T17:11:02.903Z,1.23
2022-10-11T17:13:32.218Z,1.30
2022-10-11T17:15:59.028Z,1.30
2022-10-11T17:18:33.516Z,1.35
2022-10-11T17:21:02.405Z,1.30
2022-10-11T17:23:32.046Z,1.40
2022-10-11T17:26:05.261Z,1.45
2022-10-11T17:28:39.741Z,1.45
2022-10-11T17:31:08.449Z,1.58
2022-10-11T17:33:35.986Z,1.55
2022-10-11T17:36:12.522Z,1.60
2022-10-11T17:38:39.269Z,1.23
2022-10-11T17:41:09.906Z,1.35
2022-10-11T17:43:48.179Z,1.50
2022-10-11T17:46:16.421Z,1.40
2022-10-11T17:48:44.739Z,1.40
2022-10-11T17:51:15.012Z,1.42
2022-10-11T17:53:41.836Z,1.20
2022-10-11T17:56:13.984Z,1.20
2022-10-11T17:58:43.212Z,1.60
2022-10-11T18:04:02.130Z,1.42
2022-10-11T18:06:32.692Z,1.40
2022-10-11T18:09:04.421Z,1.33
2022-10-11T18:11:37.602Z,1.10
2022-10-11T18:14:05.456Z,1.48
2022-10-11T18:16:35.332Z,1.50
2022-10-11T18:19:04.400Z,1.70
2022-10-11T18:21:36.229Z,1.80
2022-10-11T18:24:05.399Z,1.45
2022-10-11T18:26:32.482Z,1.20
2022-10-11T18:28:59.494Z,1.63
2022-10-11T18:31:29.290Z,1.60
2022-10-11T18:33:56.515Z,1.20
2022-10-11T18:36:26.973Z,1.20
2022-10-11T18:39:08.601Z,1.40
2022-10-11T18:42:26.679Z,1.48
2022-10-11T18:44:55.637Z,1.40
2022-10-11T18:47:24.200Z,1.50
2022-10-11T18:49:59.315Z,1.40
2022-10-11T18:52:33.866Z,1.45
2022-10-11T18:55:02.984Z,1.40
2022-10-11T18:57:32.357Z,1.45
2022-10-11T19:00:01.369Z,1.60
2022-10-11T19:02:34.049Z,1.30
2022-10-11T19:05:01.624Z,1.52
2022-10-11T19:07:46.878Z,1.40
2022-10-11T19:10:13.493Z,1.50
2022-10-11T19:12:40.287Z,1.52
2022-10-11T19:15:07.506Z,1.30
2022-10-11T19:17:38.447Z,1.30
2022-10-11T19:20:25.372Z,1.38
2022-10-11T19:26:23.114Z,1.40
2022-10-11T19:29:09.725Z,1.33
2022-10-11T19:31:49.217Z,1.45
2022-10-11T19:44:09.108Z,1.55
2022-10-11T19:47:00.318Z,1.48
2022-10-11T19:49:53.464Z,1.38
2022-10-11T19:52:23.562Z,1.92
2022-10-11T19:55:23.264Z,1.38
2022-10-11T19:57:55.585Z,1.65
2022-10-11T20:00:51.651Z,1.70
2022-10-11T20:03:39.274Z,1.85
2022-10-11T20:06:13.275Z,1.50
2022-10-11T20:12:18.232Z,1.75
2022-10-11T20:15:05.342Z,1.50
2022-10-11T20:24:56.906Z,1.70
2022-10-11T20:27:26.023Z,1.45
2022-10-11T20:29:52.783Z,1.60
2022-10-11T20:32:19.292Z,1.80
2022-10-11T20:34:45.880Z,1.70
2022-10-11T20:37:12.396Z,1.80
2022-10-11T20:39:41.223Z,1.80
2022-10-11T20:42:26.463Z,1.77
2022-10-11T20:44:57.225Z,2.38
2022-10-11T20:47:24.814Z,1.70
2022-10-11T20:49:51.779Z,1.80
2022-10-11T20:52:18.822Z,2.03
2022-10-11T20:54:54.503Z,1.50
2022-10-11T20:57:21.199Z,1.95
2022-10-11T20:59:48.080Z,1.77
2022-10-11T21:02:18.977Z,1.45
2022-10-11T21:04:48.469Z,1.73
2022-10-11T21:07:15.080Z,1.90
2022-10-11T21:09:41.993Z,1.70
2022-10-11T21:12:08.939Z,1.98
2022-10-11T21:14:35.720Z,1.60
2022-10-11T21:17:02.696Z,1.90
2022-10-11T21:19:29.588Z,1.83
2022-10-11T21:21:56.226Z,1.90
2022-10-11T21:24:23.331Z,1.70
2022-10-11T21:26:51.536Z,1.73
2022-10-11T21:29:18.122Z,2.10
2022-10-11T21:31:44.799Z,1.90
2022-10-11T21:34:12.529Z,1.70
2022-10-11T21:36:39.077Z,2.28
2022-10-11T21:39:05.763Z,1.85
2022-10-11T21:41:34.078Z,1.80
2022-10-11T21:44:03.863Z,2.15
2022-10-11T21:46:54.167Z,2.00
2022-10-11T21:49:19.995Z,2.10
2022-10-11T21:51:46.539Z,2.28
2022-10-11T21:54:13.097Z,2.20
2022-10-11T21:56:39.735Z,1.95
2022-10-11T21:59:09.449Z,2.10
2022-10-11T22:01:39.073Z,1.90
2022-10-11T22:04:07.575Z,2.08
2022-10-11T22:06:34.645Z,2.00
2022-10-11T22:09:01.327Z,2.17
2022-10-11T22:11:27.885Z,1.92
2022-10-11T22:13:54.533Z,1.98
2022-10-11T22:16:21.218Z,2.40
2022-10-11T22:18:47.781Z,1.92
2022-10-11T22:21:20.546Z,2.20
2022-10-11T22:23:50.005Z,1.90
2022-10-11T22:26:19.398Z,1.90
2022-10-11T22:28:46.764Z,1.98
2022-10-11T22:31:14.423Z,1.90
2022-10-11T22:33:42.022Z,2.13
2022-10-11T22:36:10.385Z,2.03
2022-10-11T22:38:39.114Z,2.28
2022-10-11T22:41:05.860Z,2.08
2022-10-11T22:43:32.908Z,1.98
2022-10-11T22:45:59.750Z,2.15
2022-10-11T22:48:26.588Z,2.30
2022-10-11T22:50:53.400Z,2.10
2022-10-11T22:53:20.306Z,1.80
2022-10-11T22:55:47.092Z,2.22
2022-10-11T22:58:14.399Z,2.00
2022-10-11T23:00:41.039Z,2.10
2022-10-11T23:03:07.708Z,1.77
2022-10-11T23:05:37.291Z,1.88
2022-10-11T23:08:03.862Z,2.50
2022-10-11T23:10:30.381Z,2.00
2022-10-11T23:12:56.938Z,1.95
2022-10-11T23:15:23.786Z,2.15
2022-10-11T23:17:50.321Z,1.83
2022-10-11T23:20:16.857Z,2.00
2022-10-11T23:22:43.388Z,1.90
2022-10-11T23:25:10.231Z,1.80
2022-10-11T23:27:37.053Z,2.30
2022-10-11T23:30:04.664Z,1.90
2022-10-11T23:32:31.140Z,1.73
2022-10-11T23:34:57.690Z,1.85
2022-10-11T23:37:26.775Z,2.28
2022-10-11T23:39:53.307Z,1.92
2022-10-11T23:42:19.802Z,2.30
2022-10-11T23:44:47.686Z,2.20
2022-10-11T23:47:14.224Z,2.10
2022-10-11T23:49:42.397Z,2.10
2022-10-11T23:52:08.917Z,1.90
2022-10-11T23:54:35.448Z,2.00
2022-10-11T23:57:01.964Z,2.03
2022-10-11T23:59:28.503Z,1.90
